sensor_id;sensor_type;location;lat;lon;timestamp;temperature;humidity
15926;DHT22;8062;53.882;10.642;2022-11-15T00:00:09;3.30;99.90
15926;DHT22;8062;53.882;10.642;2022-11-15T00:01:29;3.20;99.90
15926;DHT22;8062;53.882;10.642;2022-11-15T00:02:48;3.20;99.90
15926;DHT22;8062;53.882;10.642;2022-11-15T00:04:09;3.10;99.90
15926;DHT22;8062;53.882;10.642;2022-11-15T00:05:29;3.20;99.90
15926;DHT22;8062;53.882;10.642;2022-11-15T00:06:49;3.10;99.90
15926;DHT22;8062;53.882;10.642;2022-11-15T00:08:09;3.10;99.90
15926;DHT22;8062;53.882;10.642;2022-11-15T00:09:28;3.00;99.90
15926;DHT22;8062;53.882;10.642;2022-11-15T00:10:59;3.00;99.90
15926;DHT22;8062;53.882;10.642;2022-11-15T00:12:18;2.90;99.90
15926;DHT22;8062;53.882;10.642;2022-11-15T00:13:38;2.90;99.90
15926;DHT22;8062;53.882;10.642;2022-11-15T00:14:58;2.90;99.90
15926;DHT22;8062;53.882;10.642;2022-11-15T00:16:17;2.90;99.90
15926;DHT22;8062;53.882;10.642;2022-11-15T00:17:37;2.90;99.90
15926;DHT22;8062;53.882;10.642;2022-11-15T00:18:57;2.80;99.90
15926;DHT22;8062;53.882;10.642;2022-11-15T00:20:17;2.90;99.90
15926;DHT22;8062;53.882;10.642;2022-11-15T00:21:37;2.90;99.90
15926;DHT22;8062;53.882;10.642;2022-11-15T00:22:56;2.90;99.90
15926;DHT22;8062;53.882;10.642;2022-11-15T00:24:16;2.90;99.90
15926;DHT22;8062;53.882;10.642;2022-11-15T00:25:36;2.90;99.90
15926;DHT22;8062;53.882;10.642;2022-11-15T00:26:55;2.90;99.90
15926;DHT22;8062;53.882;10.642;2022-11-15T00:28:15;2.90;99.90
15926;DHT22;8062;53.882;10.642;2022-11-15T00:29:35;2.90;99.90
15926;DHT22;8062;53.882;10.642;2022-11-15T00:31:04;2.90;99.90
15926;DHT22;8062;53.882;10.642;2022-11-15T00:32:24;2.90;99.90
15926;DHT22;8062;53.882;10.642;2022-11-15T00:33:44;2.90;99.90
15926;DHT22;8062;53.882;10.642;2022-11-15T00:35:04;3.00;99.90
15926;DHT22;8062;53.882;10.642;2022-11-15T00:36:23;2.90;99.90
15926;DHT22;8062;53.882;10.642;2022-11-15T00:37:43;2.90;99.90
15926;DHT22;8062;53.882;10.642;2022-11-15T00:39:05;3.00;99.90
15926;DHT22;8062;53.882;10.642;2022-11-15T00:40:25;2.90;99.90
15926;DHT22;8062;53.882;10.642;2022-11-15T00:41:44;2.90;99.90
15926;DHT22;8062;53.882;10.642;2022-11-15T00:43:04;2.90;99.90
15926;DHT22;8062;53.882;10.642;2022-11-15T00:44:24;3.10;99.90
15926;DHT22;8062;53.882;10.642;2022-11-15T00:45:44;3.20;99.90
15926;DHT22;8062;53.882;10.642;2022-11-15T00:47:03;3.30;99.90
15926;DHT22;8062;53.882;10.642;2022-11-15T00:48:23;3.30;99.90
15926;DHT22;8062;53.882;10.642;2022-11-15T00:49:42;3.40;99.90
15926;DHT22;8062;53.882;10.642;2022-11-15T00:51:02;3.50;99.90
15926;DHT22;8062;53.882;10.642;2022-11-15T00:52:22;3.60;99.90
15926;DHT22;8062;53.882;10.642;2022-11-15T00:53:42;3.70;99.90
15926;DHT22;8062;53.882;10.642;2022-11-15T00:55:01;3.80;99.90
15926;DHT22;8062;53.882;10.642;2022-11-15T00:56:20;3.90;99.90
15926;DHT22;8062;53.882;10.642;2022-11-15T00:57:40;4.00;99.90
15926;DHT22;8062;53.882;10.642;2022-11-15T00:59:00;4.00;99.90
15926;DHT22;8062;53.882;10.642;2022-11-15T01:00:20;4.10;99.90
15926;DHT22;8062;53.882;10.642;2022-11-15T01:01:39;4.20;99.90
15926;DHT22;8062;53.882;10.642;2022-11-15T01:03:02;4.30;99.90
15926;DHT22;8062;53.882;10.642;2022-11-15T01:04:21;4.40;99.90
15926;DHT22;8062;53.882;10.642;2022-11-15T01:05:41;4.50;99.90
15926;DHT22;8062;53.882;10.642;2022-11-15T01:07:01;4.60;99.90
15926;DHT22;8062;53.882;10.642;2022-11-15T01:08:20;4.70;99.90
15926;DHT22;8062;53.882;10.642;2022-11-15T01:09:40;4.70;99.90
15926;DHT22;8062;53.882;10.642;2022-11-15T01:11:05;4.70;99.90
15926;DHT22;8062;53.882;10.642;2022-11-15T01:12:25;4.70;99.90
15926;DHT22;8062;53.882;10.642;2022-11-15T01:13:45;4.80;99.90
15926;DHT22;8062;53.882;10.642;2022-11-15T01:15:05;4.80;99.90
15926;DHT22;8062;53.882;10.642;2022-11-15T01:16:25;4.80;99.90
15926;DHT22;8062;53.882;10.642;2022-11-15T01:17:44;4.80;99.90
15926;DHT22;8062;53.882;10.642;2022-11-15T01:19:04;4.80;99.90
15926;DHT22;8062;53.882;10.642;2022-11-15T01:20:24;4.80;99.90
15926;DHT22;8062;53.882;10.642;2022-11-15T01:21:43;4.70;99.90
15926;DHT22;8062;53.882;10.642;2022-11-15T01:23:02;4.80;99.90
15926;DHT22;8062;53.882;10.642;2022-11-15T01:24:22;4.80;99.90
15926;DHT22;8062;53.882;10.642;2022-11-15T01:25:42;4.80;99.90
15926;DHT22;8062;53.882;10.642;2022-11-15T01:27:01;4.80;99.90
15926;DHT22;8062;53.882;10.642;2022-11-15T01:28:21;4.80;99.90
15926;DHT22;8062;53.882;10.642;2022-11-15T01:29:41;4.80;99.90
15926;DHT22;8062;53.882;10.642;2022-11-15T01:31:02;4.70;99.90
15926;DHT22;8062;53.882;10.642;2022-11-15T01:32:22;4.60;99.90
15926;DHT22;8062;53.882;10.642;2022-11-15T01:33:42;4.50;99.90
15926;DHT22;8062;53.882;10.642;2022-11-15T01:35:01;4.40;99.90
15926;DHT22;8062;53.882;10.642;2022-11-15T01:36:21;4.30;99.90
15926;DHT22;8062;53.882;10.642;2022-11-15T01:37:42;4.30;99.90
15926;DHT22;8062;53.882;10.642;2022-11-15T01:39:02;4.20;99.90
15926;DHT22;8062;53.882;10.642;2022-11-15T01:40:22;4.20;99.90
15926;DHT22;8062;53.882;10.642;2022-11-15T01:41:42;4.20;99.90
15926;DHT22;8062;53.882;10.642;2022-11-15T01:43:22;4.20;99.90
15926;DHT22;8062;53.882;10.642;2022-11-15T01:44:50;4.10;99.90
15926;DHT22;8062;53.882;10.642;2022-11-15T01:47:51;4.10;99.90
15926;DHT22;8062;53.882;10.642;2022-11-15T01:49:17;4.00;99.90
15926;DHT22;8062;53.882;10.642;2022-11-15T01:50:37;4.10;99.90
15926;DHT22;8062;53.882;10.642;2022-11-15T01:51:57;4.00;99.90
15926;DHT22;8062;53.882;10.642;2022-11-15T01:53:19;3.90;99.90
15926;DHT22;8062;53.882;10.642;2022-11-15T01:54:40;3.90;99.90
15926;DHT22;8062;53.882;10.642;2022-11-15T01:56:02;3.80;99.90
15926;DHT22;8062;53.882;10.642;2022-11-15T01:57:23;3.90;99.90
15926;DHT22;8062;53.882;10.642;2022-11-15T01:58:43;3.90;99.90
15926;DHT22;8062;53.882;10.642;2022-11-15T02:00:05;3.90;99.90
15926;DHT22;8062;53.882;10.642;2022-11-15T02:01:26;3.80;99.90
15926;DHT22;8062;53.882;10.642;2022-11-15T02:02:46;3.90;99.90
15926;DHT22;8062;53.882;10.642;2022-11-15T02:04:17;3.90;99.90
15926;DHT22;8062;53.882;10.642;2022-11-15T02:05:38;3.90;99.90
15926;DHT22;8062;53.882;10.642;2022-11-15T02:06:58;3.90;99.90
15926;DHT22;8062;53.882;10.642;2022-11-15T02:08:19;3.90;99.90
15926;DHT22;8062;53.882;10.642;2022-11-15T02:09:42;4.00;99.90
15926;DHT22;8062;53.882;10.642;2022-11-15T02:11:07;3.90;99.90
15926;DHT22;8062;53.882;10.642;2022-11-15T02:12:27;3.90;99.90
15926;DHT22;8062;53.882;10.642;2022-11-15T02:13:46;4.00;99.90
15926;DHT22;8062;53.882;10.642;2022-11-15T02:15:07;4.00;99.90
15926;DHT22;8062;53.882;10.642;2022-11-15T02:16:45;4.10;99.90
15926;DHT22;8062;53.882;10.642;2022-11-15T02:18:11;4.10;99.90
15926;DHT22;8062;53.882;10.642;2022-11-15T02:22:19;4.00;99.90
15926;DHT22;8062;53.882;10.642;2022-11-15T02:24:11;4.10;99.90
15926;DHT22;8062;53.882;10.642;2022-11-15T02:27:21;4.00;99.90
15926;DHT22;8062;53.882;10.642;2022-11-15T02:28:58;4.00;99.90
15926;DHT22;8062;53.882;10.642;2022-11-15T02:33:32;3.80;99.90
15926;DHT22;8062;53.882;10.642;2022-11-15T02:35:09;3.70;99.90
15926;DHT22;8062;53.882;10.642;2022-11-15T02:36:37;3.60;99.90
15926;DHT22;8062;53.882;10.642;2022-11-15T02:39:49;3.50;99.90
15926;DHT22;8062;53.882;10.642;2022-11-15T02:41:20;3.40;99.90
15926;DHT22;8062;53.882;10.642;2022-11-15T02:42:50;3.40;99.90
15926;DHT22;8062;53.882;10.642;2022-11-15T02:44:37;3.20;99.90
15926;DHT22;8062;53.882;10.642;2022-11-15T02:46:09;3.10;99.90
15926;DHT22;8062;53.882;10.642;2022-11-15T02:47:37;3.00;99.90
15926;DHT22;8062;53.882;10.642;2022-11-15T02:49:00;3.00;99.90
15926;DHT22;8062;53.882;10.642;2022-11-15T02:50:21;3.00;99.90
15926;DHT22;8062;53.882;10.642;2022-11-15T02:51:45;3.00;99.90
15926;DHT22;8062;53.882;10.642;2022-11-15T02:53:07;2.90;99.90
15926;DHT22;8062;53.882;10.642;2022-11-15T02:54:30;2.90;99.90
15926;DHT22;8062;53.882;10.642;2022-11-15T02:55:51;2.90;99.90
15926;DHT22;8062;53.882;10.642;2022-11-15T02:57:16;2.80;99.90
15926;DHT22;8062;53.882;10.642;2022-11-15T02:58:57;2.80;99.90
15926;DHT22;8062;53.882;10.642;2022-11-15T03:00:20;2.80;99.90
15926;DHT22;8062;53.882;10.642;2022-11-15T03:03:41;2.90;99.90
15926;DHT22;8062;53.882;10.642;2022-11-15T03:05:17;2.90;99.90
15926;DHT22;8062;53.882;10.642;2022-11-15T03:06:46;2.90;99.90
15926;DHT22;8062;53.882;10.642;2022-11-15T03:10:01;2.90;99.90
15926;DHT22;8062;53.882;10.642;2022-11-15T03:11:23;2.90;99.90
15926;DHT22;8062;53.882;10.642;2022-11-15T03:12:56;2.90;99.90
15926;DHT22;8062;53.882;10.642;2022-11-15T03:14:45;2.90;99.90
15926;DHT22;8062;53.882;10.642;2022-11-15T03:18:37;2.90;99.90
15926;DHT22;8062;53.882;10.642;2022-11-15T03:20:00;2.90;99.90
15926;DHT22;8062;53.882;10.642;2022-11-15T03:21:22;3.00;99.90
15926;DHT22;8062;53.882;10.642;2022-11-15T03:22:44;3.00;99.90
15926;DHT22;8062;53.882;10.642;2022-11-15T03:24:06;3.00;99.90
15926;DHT22;8062;53.882;10.642;2022-11-15T03:25:28;2.90;99.90
15926;DHT22;8062;53.882;10.642;2022-11-15T03:26:50;2.90;99.90
15926;DHT22;8062;53.882;10.642;2022-11-15T03:28:15;2.80;99.90
15926;DHT22;8062;53.882;10.642;2022-11-15T03:29:39;2.70;99.90
15926;DHT22;8062;53.882;10.642;2022-11-15T03:31:01;2.50;99.90
15926;DHT22;8062;53.882;10.642;2022-11-15T03:32:50;2.40;99.90
15926;DHT22;8062;53.882;10.642;2022-11-15T03:34:26;2.40;99.90
15926;DHT22;8062;53.882;10.642;2022-11-15T03:35:48;2.30;99.90
15926;DHT22;8062;53.882;10.642;2022-11-15T03:37:08;2.20;99.90
15926;DHT22;8062;53.882;10.642;2022-11-15T03:38:31;2.20;99.90
15926;DHT22;8062;53.882;10.642;2022-11-15T03:39:53;2.10;99.90
15926;DHT22;8062;53.882;10.642;2022-11-15T03:41:21;2.10;99.90
15926;DHT22;8062;53.882;10.642;2022-11-15T03:42:52;2.10;99.90
15926;DHT22;8062;53.882;10.642;2022-11-15T03:45:58;2.00;99.90
15926;DHT22;8062;53.882;10.642;2022-11-15T03:47:39;2.00;99.90
15926;DHT22;8062;53.882;10.642;2022-11-15T03:49:19;1.90;99.90
15926;DHT22;8062;53.882;10.642;2022-11-15T03:50:42;1.90;99.90
15926;DHT22;8062;53.882;10.642;2022-11-15T03:52:04;1.80;99.90
15926;DHT22;8062;53.882;10.642;2022-11-15T03:53:24;1.80;99.90
15926;DHT22;8062;53.882;10.642;2022-11-15T03:54:53;1.80;99.90
15926;DHT22;8062;53.882;10.642;2022-11-15T03:56:13;1.70;99.90
15926;DHT22;8062;53.882;10.642;2022-11-15T03:57:33;1.70;99.90
15926;DHT22;8062;53.882;10.642;2022-11-15T03:58:52;1.70;99.90
15926;DHT22;8062;53.882;10.642;2022-11-15T04:00:12;1.70;99.90
15926;DHT22;8062;53.882;10.642;2022-11-15T04:01:32;1.60;99.90
15926;DHT22;8062;53.882;10.642;2022-11-15T04:02:52;1.60;99.90
15926;DHT22;8062;53.882;10.642;2022-11-15T04:04:11;1.60;99.90
15926;DHT22;8062;53.882;10.642;2022-11-15T04:05:31;1.60;99.90
15926;DHT22;8062;53.882;10.642;2022-11-15T04:06:50;1.50;99.90
15926;DHT22;8062;53.882;10.642;2022-11-15T04:08:10;1.50;99.90
15926;DHT22;8062;53.882;10.642;2022-11-15T04:09:30;1.50;99.90
15926;DHT22;8062;53.882;10.642;2022-11-15T04:10:50;1.50;99.90
15926;DHT22;8062;53.882;10.642;2022-11-15T04:12:09;1.50;99.90
15926;DHT22;8062;53.882;10.642;2022-11-15T04:13:29;1.50;99.90
15926;DHT22;8062;53.882;10.642;2022-11-15T04:14:49;1.50;99.90
15926;DHT22;8062;53.882;10.642;2022-11-15T04:16:25;1.50;99.90
15926;DHT22;8062;53.882;10.642;2022-11-15T04:17:47;1.50;99.90
15926;DHT22;8062;53.882;10.642;2022-11-15T04:19:07;1.60;99.90
15926;DHT22;8062;53.882;10.642;2022-11-15T04:20:46;1.60;99.90
15926;DHT22;8062;53.882;10.642;2022-11-15T04:22:25;1.60;99.90
15926;DHT22;8062;53.882;10.642;2022-11-15T04:24:03;1.70;99.90
15926;DHT22;8062;53.882;10.642;2022-11-15T04:25:33;1.70;99.90
15926;DHT22;8062;53.882;10.642;2022-11-15T04:26:52;1.70;99.90
15926;DHT22;8062;53.882;10.642;2022-11-15T04:28:12;1.80;99.90
15926;DHT22;8062;53.882;10.642;2022-11-15T04:29:31;1.80;99.90
15926;DHT22;8062;53.882;10.642;2022-11-15T04:30:54;1.90;99.90
15926;DHT22;8062;53.882;10.642;2022-11-15T04:32:14;1.90;99.90
15926;DHT22;8062;53.882;10.642;2022-11-15T04:33:34;1.90;99.90
15926;DHT22;8062;53.882;10.642;2022-11-15T04:34:53;1.90;99.90
15926;DHT22;8062;53.882;10.642;2022-11-15T04:36:13;1.90;99.90
15926;DHT22;8062;53.882;10.642;2022-11-15T04:37:52;1.90;99.90
15926;DHT22;8062;53.882;10.642;2022-11-15T04:39:11;1.90;99.90
15926;DHT22;8062;53.882;10.642;2022-11-15T04:40:31;1.90;99.90
15926;DHT22;8062;53.882;10.642;2022-11-15T04:41:51;1.80;99.90
15926;DHT22;8062;53.882;10.642;2022-11-15T04:43:10;1.70;99.90
15926;DHT22;8062;53.882;10.642;2022-11-15T04:44:30;1.70;99.90
15926;DHT22;8062;53.882;10.642;2022-11-15T04:45:49;1.70;99.90
15926;DHT22;8062;53.882;10.642;2022-11-15T04:47:09;1.70;99.90
15926;DHT22;8062;53.882;10.642;2022-11-15T04:48:28;1.60;99.90
15926;DHT22;8062;53.882;10.642;2022-11-15T04:49:48;1.60;99.90
15926;DHT22;8062;53.882;10.642;2022-11-15T04:51:08;1.60;99.90
15926;DHT22;8062;53.882;10.642;2022-11-15T04:52:27;1.60;99.90
15926;DHT22;8062;53.882;10.642;2022-11-15T04:53:47;1.50;99.90
15926;DHT22;8062;53.882;10.642;2022-11-15T04:55:11;1.50;99.90
15926;DHT22;8062;53.882;10.642;2022-11-15T04:56:31;1.50;99.90
15926;DHT22;8062;53.882;10.642;2022-11-15T04:57:58;1.50;99.90
15926;DHT22;8062;53.882;10.642;2022-11-15T04:59:18;1.60;99.90
15926;DHT22;8062;53.882;10.642;2022-11-15T05:00:37;1.60;99.90
15926;DHT22;8062;53.882;10.642;2022-11-15T05:01:59;1.60;99.90
15926;DHT22;8062;53.882;10.642;2022-11-15T05:03:18;1.70;99.90
15926;DHT22;8062;53.882;10.642;2022-11-15T05:04:57;1.70;99.90
15926;DHT22;8062;53.882;10.642;2022-11-15T05:06:16;1.80;99.90
15926;DHT22;8062;53.882;10.642;2022-11-15T05:07:36;1.80;99.90
15926;DHT22;8062;53.882;10.642;2022-11-15T05:08:56;1.90;99.90
15926;DHT22;8062;53.882;10.642;2022-11-15T05:10:16;2.00;99.90
15926;DHT22;8062;53.882;10.642;2022-11-15T05:11:36;2.10;99.90
15926;DHT22;8062;53.882;10.642;2022-11-15T05:12:55;2.20;99.90
15926;DHT22;8062;53.882;10.642;2022-11-15T05:14:15;2.20;99.90
15926;DHT22;8062;53.882;10.642;2022-11-15T05:15:35;2.20;99.90
15926;DHT22;8062;53.882;10.642;2022-11-15T05:16:55;2.20;99.90
15926;DHT22;8062;53.882;10.642;2022-11-15T05:18:15;2.20;99.90
15926;DHT22;8062;53.882;10.642;2022-11-15T05:19:34;2.20;99.90
15926;DHT22;8062;53.882;10.642;2022-11-15T05:20:54;2.30;99.90
15926;DHT22;8062;53.882;10.642;2022-11-15T05:22:14;2.40;99.90
15926;DHT22;8062;53.882;10.642;2022-11-15T05:23:34;2.40;99.90
15926;DHT22;8062;53.882;10.642;2022-11-15T05:24:53;2.40;99.90
15926;DHT22;8062;53.882;10.642;2022-11-15T05:26:15;2.50;99.90
15926;DHT22;8062;53.882;10.642;2022-11-15T05:27:35;2.50;99.90
15926;DHT22;8062;53.882;10.642;2022-11-15T05:28:55;2.50;99.90
15926;DHT22;8062;53.882;10.642;2022-11-15T05:30:16;2.60;99.90
15926;DHT22;8062;53.882;10.642;2022-11-15T05:31:39;2.60;99.90
15926;DHT22;8062;53.882;10.642;2022-11-15T05:33:00;2.60;99.90
15926;DHT22;8062;53.882;10.642;2022-11-15T05:34:20;2.60;99.90
15926;DHT22;8062;53.882;10.642;2022-11-15T05:35:46;2.60;99.90
15926;DHT22;8062;53.882;10.642;2022-11-15T05:37:07;2.60;99.90
15926;DHT22;8062;53.882;10.642;2022-11-15T05:38:27;2.70;99.90
15926;DHT22;8062;53.882;10.642;2022-11-15T05:39:47;2.70;99.90
15926;DHT22;8062;53.882;10.642;2022-11-15T05:41:07;2.80;99.90
15926;DHT22;8062;53.882;10.642;2022-11-15T05:42:27;2.80;99.90
15926;DHT22;8062;53.882;10.642;2022-11-15T05:43:48;2.80;99.90
15926;DHT22;8062;53.882;10.642;2022-11-15T05:45:09;2.90;99.90
15926;DHT22;8062;53.882;10.642;2022-11-15T05:46:29;3.00;99.90
15926;DHT22;8062;53.882;10.642;2022-11-15T05:47:49;3.00;99.90
15926;DHT22;8062;53.882;10.642;2022-11-15T05:49:12;3.10;99.90
15926;DHT22;8062;53.882;10.642;2022-11-15T05:50:35;3.20;99.90
15926;DHT22;8062;53.882;10.642;2022-11-15T05:51:56;3.30;99.90
15926;DHT22;8062;53.882;10.642;2022-11-15T05:53:19;3.30;99.90
15926;DHT22;8062;53.882;10.642;2022-11-15T05:54:40;3.40;99.90
15926;DHT22;8062;53.882;10.642;2022-11-15T05:56:01;3.60;99.90
15926;DHT22;8062;53.882;10.642;2022-11-15T05:57:21;3.70;99.90
15926;DHT22;8062;53.882;10.642;2022-11-15T05:58:41;3.80;99.90
15926;DHT22;8062;53.882;10.642;2022-11-15T06:00:04;3.90;99.90
15926;DHT22;8062;53.882;10.642;2022-11-15T06:01:25;4.00;99.90
15926;DHT22;8062;53.882;10.642;2022-11-15T06:02:45;4.00;99.90
15926;DHT22;8062;53.882;10.642;2022-11-15T06:04:05;4.10;99.90
15926;DHT22;8062;53.882;10.642;2022-11-15T06:05:25;4.20;99.90
15926;DHT22;8062;53.882;10.642;2022-11-15T06:06:44;4.20;99.90
15926;DHT22;8062;53.882;10.642;2022-11-15T06:08:04;4.30;99.90
15926;DHT22;8062;53.882;10.642;2022-11-15T06:09:24;4.40;99.90
15926;DHT22;8062;53.882;10.642;2022-11-15T06:10:44;4.40;99.90
15926;DHT22;8062;53.882;10.642;2022-11-15T06:12:04;4.40;99.90
15926;DHT22;8062;53.882;10.642;2022-11-15T06:13:23;4.40;99.90
15926;DHT22;8062;53.882;10.642;2022-11-15T06:14:43;4.50;99.90
15926;DHT22;8062;53.882;10.642;2022-11-15T06:16:03;4.50;99.90
15926;DHT22;8062;53.882;10.642;2022-11-15T06:17:22;4.60;99.90
15926;DHT22;8062;53.882;10.642;2022-11-15T06:18:42;4.70;99.90
15926;DHT22;8062;53.882;10.642;2022-11-15T06:20:02;4.70;99.90
15926;DHT22;8062;53.882;10.642;2022-11-15T06:21:23;4.80;99.90
15926;DHT22;8062;53.882;10.642;2022-11-15T06:22:43;4.90;99.90
15926;DHT22;8062;53.882;10.642;2022-11-15T06:24:02;5.00;99.90
15926;DHT22;8062;53.882;10.642;2022-11-15T06:25:22;5.00;99.90
15926;DHT22;8062;53.882;10.642;2022-11-15T06:26:41;5.10;99.90
15926;DHT22;8062;53.882;10.642;2022-11-15T06:28:01;5.10;99.90
15926;DHT22;8062;53.882;10.642;2022-11-15T06:29:21;5.10;99.90
15926;DHT22;8062;53.882;10.642;2022-11-15T06:30:41;5.10;99.90
15926;DHT22;8062;53.882;10.642;2022-11-15T06:32:00;5.10;99.90
15926;DHT22;8062;53.882;10.642;2022-11-15T06:33:20;5.10;99.90
15926;DHT22;8062;53.882;10.642;2022-11-15T06:34:40;5.10;99.90
15926;DHT22;8062;53.882;10.642;2022-11-15T06:36:01;5.20;99.90
15926;DHT22;8062;53.882;10.642;2022-11-15T06:37:21;5.20;99.90
15926;DHT22;8062;53.882;10.642;2022-11-15T06:38:41;5.30;99.90
15926;DHT22;8062;53.882;10.642;2022-11-15T06:40:01;5.40;99.90
15926;DHT22;8062;53.882;10.642;2022-11-15T06:41:20;5.40;99.90
15926;DHT22;8062;53.882;10.642;2022-11-15T06:42:40;5.50;99.90
15926;DHT22;8062;53.882;10.642;2022-11-15T06:44:00;5.50;99.90
15926;DHT22;8062;53.882;10.642;2022-11-15T06:45:19;5.60;99.90
15926;DHT22;8062;53.882;10.642;2022-11-15T06:46:39;5.70;99.90
15926;DHT22;8062;53.882;10.642;2022-11-15T06:47:59;5.70;99.90
15926;DHT22;8062;53.882;10.642;2022-11-15T06:49:18;5.70;99.90
15926;DHT22;8062;53.882;10.642;2022-11-15T06:50:38;5.70;99.90
15926;DHT22;8062;53.882;10.642;2022-11-15T06:51:58;5.80;99.90
15926;DHT22;8062;53.882;10.642;2022-11-15T06:53:18;5.80;99.90
15926;DHT22;8062;53.882;10.642;2022-11-15T06:54:37;5.80;99.90
15926;DHT22;8062;53.882;10.642;2022-11-15T06:56:01;5.90;99.90
15926;DHT22;8062;53.882;10.642;2022-11-15T06:57:22;5.90;99.90
15926;DHT22;8062;53.882;10.642;2022-11-15T06:58:41;5.90;99.90
15926;DHT22;8062;53.882;10.642;2022-11-15T07:00:05;6.00;99.90
15926;DHT22;8062;53.882;10.642;2022-11-15T07:01:25;5.90;99.90
15926;DHT22;8062;53.882;10.642;2022-11-15T07:02:45;6.00;99.90
15926;DHT22;8062;53.882;10.642;2022-11-15T07:04:05;6.00;99.90
15926;DHT22;8062;53.882;10.642;2022-11-15T07:05:25;6.00;99.90
15926;DHT22;8062;53.882;10.642;2022-11-15T07:06:46;6.10;99.90
15926;DHT22;8062;53.882;10.642;2022-11-15T07:08:07;6.10;99.90
15926;DHT22;8062;53.882;10.642;2022-11-15T07:09:26;6.10;99.90
15926;DHT22;8062;53.882;10.642;2022-11-15T07:10:46;6.10;99.90
15926;DHT22;8062;53.882;10.642;2022-11-15T07:12:06;6.20;99.90
15926;DHT22;8062;53.882;10.642;2022-11-15T07:13:26;6.20;99.90
15926;DHT22;8062;53.882;10.642;2022-11-15T07:14:46;6.20;99.90
15926;DHT22;8062;53.882;10.642;2022-11-15T07:16:08;6.30;99.90
15926;DHT22;8062;53.882;10.642;2022-11-15T07:17:28;6.30;99.90
15926;DHT22;8062;53.882;10.642;2022-11-15T07:18:47;6.30;99.90
15926;DHT22;8062;53.882;10.642;2022-11-15T07:20:07;6.40;99.90
15926;DHT22;8062;53.882;10.642;2022-11-15T07:21:27;6.40;99.90
15926;DHT22;8062;53.882;10.642;2022-11-15T07:22:47;6.40;99.90
15926;DHT22;8062;53.882;10.642;2022-11-15T07:24:06;6.50;99.90
15926;DHT22;8062;53.882;10.642;2022-11-15T07:25:26;6.50;99.90
15926;DHT22;8062;53.882;10.642;2022-11-15T07:26:46;6.50;99.90
15926;DHT22;8062;53.882;10.642;2022-11-15T07:28:06;6.50;99.90
15926;DHT22;8062;53.882;10.642;2022-11-15T07:29:25;6.60;99.90
15926;DHT22;8062;53.882;10.642;2022-11-15T07:30:45;6.60;99.90
15926;DHT22;8062;53.882;10.642;2022-11-15T07:32:04;6.60;99.90
15926;DHT22;8062;53.882;10.642;2022-11-15T07:33:24;6.60;99.90
15926;DHT22;8062;53.882;10.642;2022-11-15T07:34:44;6.60;99.90
15926;DHT22;8062;53.882;10.642;2022-11-15T07:36:06;6.60;99.90
15926;DHT22;8062;53.882;10.642;2022-11-15T07:37:25;6.70;99.90
15926;DHT22;8062;53.882;10.642;2022-11-15T07:38:45;6.70;99.90
15926;DHT22;8062;53.882;10.642;2022-11-15T07:40:05;6.80;99.90
15926;DHT22;8062;53.882;10.642;2022-11-15T07:41:24;6.80;99.90
15926;DHT22;8062;53.882;10.642;2022-11-15T07:42:44;6.80;99.90
15926;DHT22;8062;53.882;10.642;2022-11-15T07:44:13;6.90;99.90
15926;DHT22;8062;53.882;10.642;2022-11-15T07:45:33;6.90;99.90
15926;DHT22;8062;53.882;10.642;2022-11-15T07:46:55;6.90;99.90
15926;DHT22;8062;53.882;10.642;2022-11-15T07:48:15;6.90;99.90
15926;DHT22;8062;53.882;10.642;2022-11-15T07:49:35;6.90;99.90
15926;DHT22;8062;53.882;10.642;2022-11-15T07:50:54;6.90;99.90
15926;DHT22;8062;53.882;10.642;2022-11-15T07:52:14;6.90;99.90
15926;DHT22;8062;53.882;10.642;2022-11-15T07:53:34;6.90;99.90
15926;DHT22;8062;53.882;10.642;2022-11-15T07:54:54;6.90;99.90
15926;DHT22;8062;53.882;10.642;2022-11-15T07:56:13;6.90;99.90
15926;DHT22;8062;53.882;10.642;2022-11-15T07:57:33;7.00;99.90
15926;DHT22;8062;53.882;10.642;2022-11-15T07:58:53;7.00;99.90
15926;DHT22;8062;53.882;10.642;2022-11-15T08:00:13;7.10;99.90
15926;DHT22;8062;53.882;10.642;2022-11-15T08:01:33;7.10;99.90
15926;DHT22;8062;53.882;10.642;2022-11-15T08:02:53;7.20;99.90
15926;DHT22;8062;53.882;10.642;2022-11-15T08:04:19;7.20;99.90
15926;DHT22;8062;53.882;10.642;2022-11-15T08:05:40;7.10;99.90
15926;DHT22;8062;53.882;10.642;2022-11-15T08:07:01;7.10;99.90
15926;DHT22;8062;53.882;10.642;2022-11-15T08:08:20;7.20;99.90
15926;DHT22;8062;53.882;10.642;2022-11-15T08:09:40;7.20;99.90
15926;DHT22;8062;53.882;10.642;2022-11-15T08:11:00;7.30;99.90
15926;DHT22;8062;53.882;10.642;2022-11-15T08:12:19;7.30;99.90
15926;DHT22;8062;53.882;10.642;2022-11-15T08:13:39;7.30;99.90
15926;DHT22;8062;53.882;10.642;2022-11-15T08:14:58;7.40;99.90
15926;DHT22;8062;53.882;10.642;2022-11-15T08:16:18;7.40;99.90
15926;DHT22;8062;53.882;10.642;2022-11-15T08:17:38;7.50;99.90
15926;DHT22;8062;53.882;10.642;2022-11-15T08:18:58;7.50;99.90
15926;DHT22;8062;53.882;10.642;2022-11-15T08:20:17;7.50;99.90
15926;DHT22;8062;53.882;10.642;2022-11-15T08:21:38;7.50;99.90
15926;DHT22;8062;53.882;10.642;2022-11-15T08:23:00;7.60;99.90
15926;DHT22;8062;53.882;10.642;2022-11-15T08:24:19;7.60;99.90
15926;DHT22;8062;53.882;10.642;2022-11-15T08:25:40;7.60;99.90
15926;DHT22;8062;53.882;10.642;2022-11-15T08:26:59;7.60;99.90
15926;DHT22;8062;53.882;10.642;2022-11-15T08:28:19;7.70;99.90
15926;DHT22;8062;53.882;10.642;2022-11-15T08:29:39;7.80;99.90
15926;DHT22;8062;53.882;10.642;2022-11-15T08:30:59;7.70;99.90
15926;DHT22;8062;53.882;10.642;2022-11-15T08:32:18;7.80;99.90
15926;DHT22;8062;53.882;10.642;2022-11-15T08:33:38;7.90;99.90
15926;DHT22;8062;53.882;10.642;2022-11-15T08:34:58;8.00;99.90
15926;DHT22;8062;53.882;10.642;2022-11-15T08:36:18;8.00;99.90
15926;DHT22;8062;53.882;10.642;2022-11-15T08:37:38;8.00;99.90
15926;DHT22;8062;53.882;10.642;2022-11-15T08:38:57;8.10;99.90
15926;DHT22;8062;53.882;10.642;2022-11-15T08:40:17;8.10;99.90
15926;DHT22;8062;53.882;10.642;2022-11-15T08:41:38;8.10;99.90
15926;DHT22;8062;53.882;10.642;2022-11-15T08:42:58;8.10;99.90
15926;DHT22;8062;53.882;10.642;2022-11-15T08:44:19;8.10;99.90
15926;DHT22;8062;53.882;10.642;2022-11-15T08:45:38;8.10;99.90
15926;DHT22;8062;53.882;10.642;2022-11-15T08:46:58;8.10;99.90
15926;DHT22;8062;53.882;10.642;2022-11-15T08:48:17;8.10;99.90
15926;DHT22;8062;53.882;10.642;2022-11-15T08:49:37;8.20;99.90
15926;DHT22;8062;53.882;10.642;2022-11-15T08:50:57;8.10;99.90
15926;DHT22;8062;53.882;10.642;2022-11-15T08:52:16;8.10;99.90
15926;DHT22;8062;53.882;10.642;2022-11-15T08:53:36;8.10;99.90
15926;DHT22;8062;53.882;10.642;2022-11-15T08:54:55;8.10;99.90
15926;DHT22;8062;53.882;10.642;2022-11-15T08:56:15;8.20;99.90
15926;DHT22;8062;53.882;10.642;2022-11-15T08:57:35;8.20;99.90
15926;DHT22;8062;53.882;10.642;2022-11-15T08:58:54;8.20;99.90
15926;DHT22;8062;53.882;10.642;2022-11-15T09:00:14;8.20;99.90
15926;DHT22;8062;53.882;10.642;2022-11-15T09:01:34;8.30;99.90
15926;DHT22;8062;53.882;10.642;2022-11-15T09:02:53;8.30;99.90